Time;durP1;ratioP1;P1;durP2;ratioP2;P2;SDS_P1;SDS_P2;PMS_P1;PMS_P2;Temp;Humidity;BMP_temperature;BMP_pressure;BME280_temperature;BME280_humidity;BME280_pressure;Samples;Min_cycle;Max_cycle;Signal;HPM_P1;HPM_P2
2023/08/05 00:02:18;;;;;;;3.17;2.88;;;19.60;99.90;;;;;;5052343;28;20392;-43
2023/08/05 00:04:44;;;;;;;3.53;3.22;;;19.60;99.90;;;;;;5052037;28;20061;-45
2023/08/05 00:07:09;;;;;;;3.05;2.70;;;19.60;99.90;;;;;;5052276;28;20028;-43
2023/08/05 00:09:35;;;;;;;3.55;2.97;;;19.60;99.90;;;;;;5051680;28;20029;-46
2023/08/05 00:12:01;;;;;;;3.25;2.90;;;19.60;99.90;;;;;;5051361;28;20028;-44
2023/08/05 00:14:26;;;;;;;3.45;2.78;;;19.60;99.90;;;;;;5051933;28;20021;-42
2023/08/05 00:16:52;;;;;;;3.28;2.97;;;19.60;99.90;;;;;;5052124;28;20106;-45
2023/08/05 00:19:17;;;;;;;2.90;2.60;;;19.50;99.90;;;;;;5051743;28;20025;-46
2023/08/05 00:21:43;;;;;;;4.03;2.75;;;19.60;99.90;;;;;;5052169;28;20254;-42
2023/08/05 00:24:09;;;;;;;4.38;3.10;;;19.60;99.90;;;;;;5051641;28;20480;-45
2023/08/05 00:26:34;;;;;;;3.90;2.80;;;19.60;99.90;;;;;;5051597;28;20029;-44
2023/08/05 00:29:00;;;;;;;3.80;2.92;;;19.60;99.90;;;;;;5050225;28;20023;-46
2023/08/05 00:31:25;;;;;;;2.92;2.65;;;19.60;99.90;;;;;;5050685;28;20039;-43
2023/08/05 00:33:51;;;;;;;6.28;2.97;;;19.60;99.90;;;;;;5051753;28;20401;-45
2023/08/05 00:36:17;;;;;;;3.40;2.80;;;19.60;99.90;;;;;;5051598;28;20067;-44
2023/08/05 00:38:42;;;;;;;3.95;2.45;;;19.60;99.90;;;;;;5051510;28;20056;-44
2023/08/05 00:41:08;;;;;;;3.30;2.70;;;19.60;99.90;;;;;;5051472;28;20033;-44
2023/08/05 00:43:34;;;;;;;4.32;3.22;;;19.60;99.90;;;;;;5051411;28;20033;-42
2023/08/05 00:46:00;;;;;;;3.25;2.90;;;19.60;99.90;;;;;;5051453;28;20035;-44
2023/08/05 00:48:26;;;;;;;4.25;3.08;;;19.60;99.90;;;;;;5051436;28;20394;-44
2023/08/05 00:50:54;;;;;;;3.78;2.40;;;19.60;99.90;;;;;;5051261;28;20017;-44
2023/08/05 00:53:23;;;;;;;5.60;2.83;;;19.60;99.90;;;;;;5051377;28;20017;-45
2023/08/05 00:55:50;;;;;;;3.33;2.75;;;19.50;99.90;;;;;;5051432;28;20029;-45
2023/08/05 00:58:16;;;;;;;2.72;2.40;;;19.60;99.90;;;;;;5051315;28;20044;-43
2023/08/05 01:00:42;;;;;;;4.43;2.65;;;19.50;99.90;;;;;;5051231;28;20488;-43
2023/08/05 01:03:07;;;;;;;3.30;2.70;;;19.50;99.90;;;;;;5051151;28;20102;-44
2023/08/05 01:05:35;;;;;;;2.85;2.55;;;19.50;99.90;;;;;;5051210;28;20033;-47
2023/08/05 01:08:02;;;;;;;3.40;2.70;;;19.50;99.90;;;;;;5051219;28;20032;-43
2023/08/05 01:10:28;;;;;;;2.60;2.40;;;19.60;99.90;;;;;;5050910;28;20388;-41
2023/08/05 01:12:53;;;;;;;3.60;2.83;;;19.50;99.90;;;;;;5051119;28;20039;-45
2023/08/05 01:15:19;;;;;;;2.78;2.40;;;19.50;99.90;;;;;;5051170;28;20032;-43
2023/08/05 01:17:45;;;;;;;4.55;2.60;;;19.50;99.90;;;;;;5051137;28;20021;-44
2023/08/05 01:20:13;;;;;;;3.33;2.50;;;19.50;99.90;;;;;;5050972;28;20025;-44
2023/08/05 01:22:49;;;;;;;3.05;2.70;;;19.50;99.90;;;;;;5053365;28;20056;-43
2023/08/05 01:25:21;;;;;;;2.65;2.45;;;19.50;99.90;;;;;;5055139;28;20036;-46
2023/08/05 01:27:47;;;;;;;3.10;2.70;;;19.50;99.90;;;;;;5055184;28;20026;-45
2023/08/05 01:30:12;;;;;;;2.85;2.50;;;19.50;99.90;;;;;;5055008;28;20252;-46
2023/08/05 01:32:40;;;;;;;4.47;2.65;;;19.50;99.90;;;;;;5055011;28;20057;-44
2023/08/05 01:35:09;;;;;;;4.85;2.65;;;19.50;99.90;;;;;;5055119;28;20071;-42
2023/08/05 01:37:35;;;;;;;2.88;2.25;;;19.50;99.90;;;;;;5054940;28;20025;-44
2023/08/05 01:40:00;;;;;;;3.47;2.33;;;19.50;99.90;;;;;;5054821;28;20029;-45
2023/08/05 01:42:26;;;;;;;6.53;2.80;;;19.50;99.90;;;;;;5055055;28;20029;-42
2023/08/05 01:44:52;;;;;;;3.45;2.50;;;19.50;99.90;;;;;;5054924;28;20028;-43
2023/08/05 01:47:17;;;;;;;3.70;3.05;;;19.50;99.90;;;;;;5054793;28;20025;-43
2023/08/05 01:49:43;;;;;;;3.50;2.65;;;19.50;99.90;;;;;;5054517;28;20021;-45
2023/08/05 01:52:09;;;;;;;3.47;2.22;;;19.50;99.90;;;;;;5054599;28;20103;-45
2023/08/05 01:54:34;;;;;;;3.08;2.60;;;19.50;99.90;;;;;;5054600;28;20047;-43
2023/08/05 01:57:00;;;;;;;3.80;2.75;;;19.50;99.90;;;;;;5054659;28;20028;-45
2023/08/05 01:59:26;;;;;;;2.40;2.20;;;19.50;99.90;;;;;;5054362;28;20091;-44
2023/08/05 02:01:51;;;;;;;3.03;2.50;;;19.50;99.90;;;;;;5054485;28;20036;-43
2023/08/05 02:04:17;;;;;;;3.83;2.65;;;19.50;99.90;;;;;;5054406;28;20495;-43
2023/08/05 02:06:42;;;;;;;2.92;2.50;;;19.50;99.90;;;;;;5054269;28;20116;-44
2023/08/05 02:09:08;;;;;;;3.28;2.40;;;19.50;99.90;;;;;;5054236;28;20095;-43
2023/08/05 02:11:34;;;;;;;3.33;2.58;;;19.50;99.90;;;;;;5054406;28;20155;-46
2023/08/05 02:14:00;;;;;;;2.65;2.30;;;19.50;99.90;;;;;;5054289;28;20628;-43
2023/08/05 02:16:25;;;;;;;3.40;2.22;;;19.50;99.90;;;;;;5054286;28;20442;-42
2023/08/05 02:18:52;;;;;;;2.75;2.30;;;19.50;99.90;;;;;;5054075;28;20033;-43
2023/08/05 02:21:17;;;;;;;3.65;2.80;;;19.50;99.90;;;;;;5054169;28;20486;-44
2023/08/05 02:23:43;;;;;;;2.58;2.38;;;19.50;99.90;;;;;;5053999;28;20488;-42
2023/08/05 02:26:09;;;;;;;3.83;2.58;;;19.40;99.90;;;;;;5054037;28;20082;-44
2023/08/05 02:28:35;;;;;;;3.42;2.55;;;19.50;99.90;;;;;;5054091;28;20071;-44
2023/08/05 02:31:01;;;;;;;4.15;2.58;;;19.50;99.90;;;;;;5053845;28;20431;-44
2023/08/05 02:33:27;;;;;;;3.63;2.45;;;19.40;99.90;;;;;;5052874;28;20480;-45
2023/08/05 02:36:02;;;;;;;2.55;2.35;;;19.40;99.90;;;;;;5053842;28;20025;-45
2023/08/05 02:38:27;;;;;;;4.32;2.33;;;19.40;99.90;;;;;;5054106;28;20432;-45
2023/08/05 02:40:53;;;;;;;2.72;2.35;;;19.40;99.90;;;;;;5053671;28;20466;-42
2023/08/05 02:43:19;;;;;;;3.67;2.67;;;19.50;99.90;;;;;;5053753;28;20036;-43
2023/08/05 02:45:53;;;;;;;4.18;2.38;;;19.50;99.90;;;;;;5053653;28;20049;-45
2023/08/05 02:48:18;;;;;;;2.67;2.47;;;19.40;99.90;;;;;;5053717;28;20022;-45
2023/08/05 02:50:44;;;;;;;4.28;2.13;;;19.40;99.90;;;;;;5053397;28;20036;-43
2023/08/05 02:53:10;;;;;;;4.43;2.60;;;19.40;99.90;;;;;;5053509;28;20067;-44
2023/08/05 02:55:35;;;;;;;2.78;2.28;;;19.40;99.90;;;;;;5053560;28;20033;-43
2023/08/05 02:58:01;;;;;;;2.42;2.22;;;19.40;99.90;;;;;;5053574;28;20028;-45
2023/08/05 03:00:26;;;;;;;3.03;2.22;;;19.40;99.90;;;;;;5053245;28;20047;-43
2023/08/05 03:02:52;;;;;;;2.70;2.17;;;19.40;99.90;;;;;;5053215;28;20029;-44
2023/08/05 03:05:18;;;;;;;3.88;2.20;;;19.40;99.90;;;;;;5053315;28;20083;-41
2023/08/05 03:07:43;;;;;;;2.92;2.47;;;19.40;99.90;;;;;;5053571;28;20024;-44
2023/08/05 03:10:09;;;;;;;3.28;2.40;;;19.40;99.90;;;;;;5053068;28;20361;-44
2023/08/05 03:12:34;;;;;;;2.45;2.17;;;19.40;99.90;;;;;;5053122;28;20020;-44
2023/08/05 03:15:00;;;;;;;2.70;2.42;;;19.40;99.90;;;;;;5053301;28;20117;-45
2023/08/05 03:17:26;;;;;;;4.20;2.95;;;19.40;99.90;;;;;;5053298;28;20111;-44
2023/08/05 03:19:52;;;;;;;2.63;2.40;;;19.40;99.90;;;;;;5052820;28;20036;-43
2023/08/05 03:22:18;;;;;;;3.17;2.30;;;19.40;99.90;;;;;;5053377;28;20404;-45
2023/08/05 03:24:43;;;;;;;3.33;2.45;;;19.40;99.90;;;;;;5052843;28;20044;-45
2023/08/05 03:27:09;;;;;;;4.60;2.58;;;19.40;99.90;;;;;;5052913;28;20112;-44
2023/08/05 03:29:34;;;;;;;3.25;2.45;;;19.40;99.90;;;;;;5052716;28;20029;-44
2023/08/05 03:32:00;;;;;;;3.28;2.20;;;19.40;99.90;;;;;;5052884;28;20021;-42
2023/08/05 03:34:25;;;;;;;4.45;2.47;;;19.40;99.90;;;;;;5052735;28;20028;-43
2023/08/05 03:36:52;;;;;;;3.33;2.33;;;19.40;99.90;;;;;;5052858;28;20107;-44
2023/08/05 03:39:18;;;;;;;2.45;2.20;;;19.40;99.90;;;;;;5052564;28;20021;-44
2023/08/05 03:41:45;;;;;;;2.60;2.25;;;19.40;99.90;;;;;;5052677;28;20099;-43
2023/08/05 03:44:11;;;;;;;2.70;2.40;;;19.40;99.90;;;;;;5052433;28;20116;-45
2023/08/05 03:46:37;;;;;;;3.47;2.45;;;19.40;99.90;;;;;;5052425;28;20107;-44
2023/08/05 03:49:03;;;;;;;2.75;2.10;;;19.40;99.90;;;;;;5052589;28;20097;-45
2023/08/05 03:51:29;;;;;;;4.32;2.60;;;19.40;99.90;;;;;;5052535;28;20523;-45
2023/08/05 03:53:56;;;;;;;3.00;2.38;;;19.40;99.90;;;;;;5052343;28;20164;-44
2023/08/05 03:56:24;;;;;;;2.35;2.15;;;19.40;99.90;;;;;;5052441;28;20028;-44
2023/08/05 03:58:51;;;;;;;3.03;2.35;;;19.40;99.90;;;;;;5052218;28;20115;-42
2023/08/05 04:01:17;;;;;;;3.38;2.47;;;19.40;99.90;;;;;;5052159;28;20032;-43
2023/08/05 04:03:44;;;;;;;2.42;2.22;;;19.30;99.90;;;;;;5052167;28;20039;-46
2023/08/05 04:06:11;;;;;;;4.68;2.63;;;19.40;99.90;;;;;;5052073;28;20082;-45
2023/08/05 04:08:38;;;;;;;2.78;2.20;;;19.40;99.90;;;;;;5052244;28;20029;-45
2023/08/05 04:11:05;;;;;;;4.43;2.45;;;19.40;99.90;;;;;;5052136;28;20021;-42
2023/08/05 04:13:33;;;;;;;5.05;2.92;;;19.40;99.90;;;;;;5052035;28;20472;-42
2023/08/05 04:16:03;;;;;;;3.08;2.38;;;19.30;99.90;;;;;;5051919;28;20021;-46
2023/08/05 04:18:38;;;;;;;3.78;2.38;;;19.30;99.90;;;;;;5051984;28;20056;-42
2023/08/05 04:21:04;;;;;;;3.17;2.40;;;19.40;99.90;;;;;;5051853;28;20055;-45
2023/08/05 04:23:34;;;;;;;3.00;2.28;;;19.40;99.90;;;;;;5051789;28;20492;-46
2023/08/05 04:26:03;;;;;;;3.33;2.25;;;19.40;99.90;;;;;;5050493;28;20495;-44
2023/08/05 04:28:28;;;;;;;4.18;2.40;;;19.40;99.90;;;;;;5051647;28;20032;-44
2023/08/05 04:30:54;;;;;;;2.75;2.20;;;19.30;99.90;;;;;;5051851;28;20017;-44
2023/08/05 04:33:20;;;;;;;4.97;2.53;;;19.40;99.90;;;;;;5051709;28;20017;-45
2023/08/05 04:35:47;;;;;;;4.00;2.13;;;19.30;99.90;;;;;;5051746;28;20035;-44
2023/08/05 04:38:13;;;;;;;4.63;2.58;;;19.30;99.90;;;;;;5051863;28;20063;-43
2023/08/05 04:40:39;;;;;;;3.05;2.00;;;19.30;99.90;;;;;;5051441;28;20048;-44
2023/08/05 04:43:05;;;;;;;3.95;2.83;;;19.30;99.90;;;;;;5051368;28;20100;-43
2023/08/05 04:45:30;;;;;;;3.08;2.40;;;19.30;99.90;;;;;;5051706;28;20431;-41
2023/08/05 04:47:56;;;;;;;4.50;2.53;;;19.30;99.90;;;;;;5051702;28;20025;-43
2023/08/05 04:50:22;;;;;;;2.58;2.22;;;19.30;99.90;;;;;;5051496;28;20028;-43
2023/08/05 04:52:48;;;;;;;2.38;2.08;;;19.30;99.90;;;;;;5051469;28;20029;-45
2023/08/05 04:55:17;;;;;;;4.22;2.35;;;19.30;99.90;;;;;;5051409;28;20060;-45
2023/08/05 04:57:43;;;;;;;3.25;2.40;;;19.30;99.90;;;;;;5050707;28;20094;-44
2023/08/05 05:00:10;;;;;;;3.42;2.50;;;19.30;99.90;;;;;;5051123;28;20052;-45
2023/08/05 05:02:39;;;;;;;2.33;2.10;;;19.30;99.90;;;;;;5051355;28;20507;-43
2023/08/05 05:05:05;;;;;;;2.92;2.35;;;19.30;99.90;;;;;;5051274;28;20083;-43
2023/08/05 05:07:31;;;;;;;3.60;2.33;;;19.30;99.90;;;;;;5051214;28;20043;-45
2023/08/05 05:09:57;;;;;;;2.80;2.40;;;19.30;99.90;;;;;;5050943;28;20075;-45
2023/08/05 05:12:22;;;;;;;2.60;2.40;;;19.30;99.90;;;;;;5051017;28;20484;-42
2023/08/05 05:14:48;;;;;;;2.33;2.13;;;19.30;99.90;;;;;;5051102;28;20067;-46
2023/08/05 05:17:17;;;;;;;4.15;2.30;;;19.30;99.90;;;;;;5051166;28;20025;-42
2023/08/05 05:19:43;;;;;;;2.60;2.20;;;19.30;99.90;;;;;;5050894;28;20404;-45
2023/08/05 05:22:15;;;;;;;2.10;1.90;;;19.30;99.90;;;;;;5051084;28;20035;-45
2023/08/05 05:24:41;;;;;;;3.25;2.03;;;19.30;99.90;;;;;;5051066;28;20439;-43
2023/08/05 05:27:07;;;;;;;2.30;2.05;;;19.30;99.90;;;;;;5050950;28;20027;-45
2023/08/05 05:29:33;;;;;;;2.50;2.30;;;19.30;99.90;;;;;;5051063;28;20025;-43
2023/08/05 05:31:59;;;;;;;4.05;2.47;;;19.30;99.90;;;;;;5050935;28;20096;-45
2023/08/05 05:34:24;;;;;;;2.50;2.30;;;19.30;99.90;;;;;;5050876;28;20052;-45
2023/08/05 05:36:50;;;;;;;2.47;2.17;;;19.30;99.90;;;;;;5050985;28;20064;-45
2023/08/05 05:39:15;;;;;;;3.00;2.10;;;19.30;99.90;;;;;;5050671;28;20029;-42
2023/08/05 05:41:41;;;;;;;2.95;2.25;;;19.30;99.90;;;;;;5050884;28;20024;-45
2023/08/05 05:44:06;;;;;;;2.95;2.10;;;19.30;99.90;;;;;;5050949;28;20033;-45
2023/08/05 05:46:32;;;;;;;2.55;2.35;;;19.30;99.90;;;;;;5050820;28;20025;-43
2023/08/05 05:48:58;;;;;;;3.05;2.33;;;19.30;99.90;;;;;;5051069;28;20075;-44
2023/08/05 05:51:24;;;;;;;3.13;2.55;;;19.30;99.90;;;;;;5050817;28;20061;-45
2023/08/05 05:53:51;;;;;;;3.05;2.13;;;19.30;99.90;;;;;;5050658;28;20028;-44
2023/08/05 05:56:17;;;;;;;3.15;2.40;;;19.30;99.90;;;;;;5050774;28;20435;-41
2023/08/05 05:58:42;;;;;;;3.05;2.30;;;19.30;99.90;;;;;;5050683;28;20108;-43
2023/08/05 06:01:09;;;;;;;3.10;2.40;;;19.30;99.90;;;;;;5050753;28;20100;-45
2023/08/05 06:03:34;;;;;;;2.80;2.38;;;19.30;99.90;;;;;;5050587;28;20381;-42
2023/08/05 06:06:00;;;;;;;2.30;2.10;;;19.30;99.90;;;;;;5050638;28;20035;-44
2023/08/05 06:08:29;;;;;;;2.60;2.33;;;19.30;99.90;;;;;;5052354;28;20044;-46
2023/08/05 06:10:55;;;;;;;3.10;2.50;;;19.30;99.90;;;;;;5054514;28;20096;-43
2023/08/05 06:13:22;;;;;;;2.22;2.03;;;19.30;99.90;;;;;;5054273;28;20207;-44
2023/08/05 06:15:48;;;;;;;2.88;2.50;;;19.30;99.90;;;;;;5054331;28;20102;-45
2023/08/05 06:18:13;;;;;;;4.75;2.45;;;19.30;99.90;;;;;;5054716;28;20061;-42
2023/08/05 06:20:39;;;;;;;2.83;2.53;;;19.30;99.90;;;;;;5054075;28;20017;-42
2023/08/05 06:23:06;;;;;;;3.83;2.30;;;19.30;99.90;;;;;;5053881;28;20037;-46
2023/08/05 06:25:33;;;;;;;3.03;2.03;;;19.30;99.90;;;;;;5054117;28;20112;-43
2023/08/05 06:27:58;;;;;;;2.78;2.42;;;19.30;99.90;;;;;;5054480;28;20445;-44
2023/08/05 06:30:24;;;;;;;4.35;2.13;;;19.30;99.90;;;;;;5053876;28;20056;-45
2023/08/05 06:32:50;;;;;;;2.75;2.20;;;19.30;99.90;;;;;;5053970;28;20024;-45
2023/08/05 06:35:16;;;;;;;3.25;2.10;;;19.30;99.90;;;;;;5053952;28;20036;-44
2023/08/05 06:37:41;;;;;;;2.70;2.20;;;19.30;99.90;;;;;;5053873;28;20033;-44
2023/08/05 06:40:08;;;;;;;2.40;2.20;;;19.30;99.90;;;;;;5053676;28;20083;-44
2023/08/05 06:42:33;;;;;;;5.47;2.40;;;19.30;99.90;;;;;;5053755;28;20029;-46
2023/08/05 06:44:59;;;;;;;3.53;2.42;;;19.30;99.90;;;;;;5053709;28;20021;-42
2023/08/05 06:47:30;;;;;;;3.53;2.20;;;19.30;99.90;;;;;;5053723;28;20029;-44
2023/08/05 06:49:57;;;;;;;3.05;2.20;;;19.30;99.90;;;;;;5053527;28;20028;-43
2023/08/05 06:52:22;;;;;;;2.40;2.20;;;19.30;99.90;;;;;;5053992;28;20040;-44
2023/08/05 06:54:48;;;;;;;3.63;2.20;;;19.30;99.90;;;;;;5053569;28;20032;-44
2023/08/05 06:57:14;;;;;;;2.58;2.10;;;19.30;99.90;;;;;;5053588;28;20116;-44
2023/08/05 06:59:39;;;;;;;3.17;2.22;;;19.30;99.90;;;;;;5053395;28;20033;-42
2023/08/05 07:02:05;;;;;;;2.90;2.10;;;19.30;99.90;;;;;;5052227;28;20025;-44
2023/08/05 07:04:32;;;;;;;2.90;2.35;;;19.30;99.90;;;;;;5053431;28;20051;-42
2023/08/05 07:06:58;;;;;;;2.35;2.15;;;19.40;99.90;;;;;;5053356;28;20029;-43
2023/08/05 07:09:23;;;;;;;2.63;2.08;;;19.30;99.90;;;;;;5053280;28;20174;-45
2023/08/05 07:11:49;;;;;;;2.17;1.98;;;19.30;99.90;;;;;;5053378;28;20425;-44
2023/08/05 07:14:15;;;;;;;2.50;1.98;;;19.30;99.90;;;;;;5053167;28;20021;-45
2023/08/05 07:16:40;;;;;;;2.22;1.90;;;19.30;99.90;;;;;;5053248;28;20029;-42
2023/08/05 07:19:06;;;;;;;2.90;2.05;;;19.30;99.90;;;;;;5052590;28;20079;-43
2023/08/05 07:21:32;;;;;;;2.72;1.88;;;19.30;99.90;;;;;;5052876;28;20480;-45
2023/08/05 07:23:58;;;;;;;2.67;1.92;;;19.40;99.90;;;;;;5053370;28;20044;-42
2023/08/05 07:26:23;;;;;;;2.10;1.80;;;19.40;99.90;;;;;;5052960;28;20033;-44
2023/08/05 07:28:49;;;;;;;1.88;1.70;;;19.30;99.90;;;;;;5052865;28;20025;-43
2023/08/05 07:31:16;;;;;;;2.28;1.95;;;19.30;99.90;;;;;;5052974;28;20104;-44
2023/08/05 07:33:43;;;;;;;2.70;1.83;;;19.30;99.90;;;;;;5052785;28;20017;-43
2023/08/05 07:36:12;;;;;;;2.67;1.80;;;19.40;99.90;;;;;;5053006;28;20017;-43
2023/08/05 07:38:40;;;;;;;1.52;1.42;;;19.40;99.90;;;;;;5052764;28;20020;-45
2023/08/05 07:41:06;;;;;;;2.13;1.60;;;19.40;99.90;;;;;;5052551;28;20107;-46
2023/08/05 07:43:35;;;;;;;1.65;1.55;;;19.40;99.90;;;;;;5052620;28;20082;-43
2023/08/05 07:46:02;;;;;;;1.60;1.50;;;19.40;99.90;;;;;;5052703;28;20028;-46
2023/08/05 07:48:32;;;;;;;2.00;1.50;;;19.40;99.90;;;;;;5052498;28;20025;-42
2023/08/05 07:50:59;;;;;;;1.80;1.48;;;19.40;99.90;;;;;;5052457;28;20013;-43
2023/08/05 07:53:25;;;;;;;2.50;1.73;;;19.40;99.90;;;;;;5052404;28;20495;-44
2023/08/05 07:55:52;;;;;;;2.22;1.70;;;19.40;99.90;;;;;;5052508;28;20029;-45
2023/08/05 07:58:19;;;;;;;2.65;1.70;;;19.40;99.90;;;;;;5052443;28;20051;-42
2023/08/05 08:00:44;;;;;;;1.80;1.55;;;19.40;99.90;;;;;;5052078;28;20021;-45
2023/08/05 08:03:10;;;;;;;1.80;1.70;;;19.40;99.90;;;;;;5052167;28;20170;-44
2023/08/05 08:05:36;;;;;;;2.47;1.85;;;19.40;99.90;;;;;;5052195;28;20036;-44
2023/08/05 08:08:02;;;;;;;2.03;1.70;;;19.40;99.90;;;;;;5052214;28;20107;-44
2023/08/05 08:10:27;;;;;;;1.95;1.80;;;19.40;99.90;;;;;;5051884;28;20049;-44
2023/08/05 08:12:53;;;;;;;1.98;1.75;;;19.40;99.90;;;;;;5052072;28;20079;-41
2023/08/05 08:15:19;;;;;;;2.10;1.90;;;19.40;99.90;;;;;;5052092;28;20049;-41
2023/08/05 08:17:45;;;;;;;1.80;1.70;;;19.40;99.90;;;;;;5052078;28;20079;-43
2023/08/05 08:20:10;;;;;;;1.67;1.58;;;19.40;99.90;;;;;;5051895;28;20024;-44
2023/08/05 08:22:36;;;;;;;1.55;1.42;;;19.40;99.90;;;;;;5052040;28;20029;-42
2023/08/05 08:25:02;;;;;;;2.20;1.50;;;19.40;99.90;;;;;;5051870;28;20057;-43
2023/08/05 08:27:28;;;;;;;2.08;1.63;;;19.40;99.90;;;;;;5051955;28;20025;-44
2023/08/05 08:29:53;;;;;;;1.58;1.40;;;19.40;99.90;;;;;;5051613;28;20498;-42
2023/08/05 08:32:19;;;;;;;1.65;1.50;;;19.40;99.90;;;;;;5049670;28;20108;-44
2023/08/05 08:34:45;;;;;;;2.35;1.60;;;19.40;99.90;;;;;;5051649;28;20025;-44
2023/08/05 08:37:11;;;;;;;1.77;1.50;;;19.40;99.90;;;;;;5051704;28;20032;-43
2023/08/05 08:39:36;;;;;;;1.52;1.40;;;19.40;99.90;;;;;;5051449;28;20025;-43
2023/08/05 08:42:02;;;;;;;1.30;1.20;;;19.40;99.90;;;;;;5051659;28;20025;-41
2023/08/05 08:44:29;;;;;;;1.75;1.40;;;19.40;99.90;;;;;;5051598;28;20086;-45
2023/08/05 08:46:56;;;;;;;2.28;1.60;;;19.40;99.90;;;;;;5051432;28;20036;-44
2023/08/05 08:49:23;;;;;;;2.15;1.50;;;19.50;99.90;;;;;;5051317;28;20028;-41
2023/08/05 08:51:49;;;;;;;1.67;1.40;;;19.40;99.90;;;;;;5051526;28;20017;-43
2023/08/05 08:54:17;;;;;;;1.60;1.50;;;19.50;99.90;;;;;;5051284;28;20095;-44
2023/08/05 08:56:43;;;;;;;2.13;1.60;;;19.50;99.90;;;;;;5051422;28;20139;-46
2023/08/05 08:59:09;;;;;;;1.80;1.50;;;19.50;99.90;;;;;;5051142;28;20049;-42
2023/08/05 09:01:41;;;;;;;1.70;1.60;;;19.50;99.90;;;;;;5051323;28;20122;-42
2023/08/05 09:04:08;;;;;;;1.65;1.40;;;19.50;99.90;;;;;;5051470;28;20025;-40
2023/08/05 09:06:37;;;;;;;1.85;1.38;;;19.50;99.90;;;;;;5051165;28;20025;-44
2023/08/05 09:09:02;;;;;;;1.55;1.40;;;19.50;99.90;;;;;;5051001;28;20032;-42
2023/08/05 09:11:28;;;;;;;1.60;1.30;;;19.50;99.90;;;;;;5051237;28;20021;-47
2023/08/05 09:13:53;;;;;;;1.65;1.10;;;19.50;99.90;;;;;;5050927;28;20029;-43
2023/08/05 09:16:19;;;;;;;1.20;1.10;;;19.50;99.90;;;;;;5051168;28;20067;-44
2023/08/05 09:18:55;;;;;;;1.38;1.23;;;19.50;99.90;;;;;;5051028;28;20025;-45
2023/08/05 09:21:25;;;;;;;1.83;1.55;;;19.50;99.90;;;;;;5051086;28;20491;-45
2023/08/05 09:23:53;;;;;;;1.85;1.35;;;19.60;99.90;;;;;;5050885;28;20487;-43
2023/08/05 09:26:29;;;;;;;1.58;1.35;;;19.60;99.90;;;;;;5050905;28;20029;-45
2023/08/05 09:28:59;;;;;;;2.22;1.40;;;19.60;99.90;;;;;;5050905;28;20025;-46
2023/08/05 09:31:24;;;;;;;1.48;1.30;;;19.60;99.90;;;;;;5051006;28;20025;-43
2023/08/05 09:33:51;;;;;;;1.70;1.50;;;19.60;99.90;;;;;;5050942;28;20112;-45
2023/08/05 09:36:21;;;;;;;1.83;1.35;;;19.60;99.90;;;;;;5050995;28;20059;-44
2023/08/05 09:39:05;;;;;;;1.52;1.42;;;19.60;99.90;;;;;;5050798;28;20039;-42
2023/08/05 09:41:31;;;;;;;1.70;1.30;;;19.60;99.90;;;;;;5051049;28;20033;-44
2023/08/05 09:43:59;;;;;;;1.73;1.35;;;19.60;99.90;;;;;;5053719;28;20040;-43
2023/08/05 09:46:29;;;;;;;1.98;1.40;;;19.60;99.90;;;;;;5054882;28;20098;-44
2023/08/05 09:48:56;;;;;;;1.38;1.27;;;19.60;99.90;;;;;;5055153;28;20023;-44
2023/08/05 09:51:22;;;;;;;1.73;1.30;;;19.60;99.90;;;;;;5054571;28;20013;-44
2023/08/05 09:53:53;;;;;;;1.58;1.38;;;19.60;99.90;;;;;;5054715;28;20025;-44
2023/08/05 09:56:20;;;;;;;1.45;1.33;;;19.60;99.90;;;;;;5054770;28;20091;-42
2023/08/05 09:58:48;;;;;;;1.40;1.30;;;19.60;99.90;;;;;;5054628;28;20107;-42
2023/08/05 10:01:13;;;;;;;1.67;1.40;;;19.60;99.90;;;;;;5054660;28;20041;-45
2023/08/05 10:03:40;;;;;;;1.23;1.08;;;19.60;99.90;;;;;;5054431;28;20514;-44
2023/08/05 10:06:07;;;;;;;1.23;1.13;;;19.60;99.90;;;;;;5054416;28;20033;-42
2023/08/05 10:08:35;;;;;;;3.08;1.35;;;19.60;99.90;;;;;;5054538;28;20426;-43
2023/08/05 10:11:01;;;;;;;1.58;1.48;;;19.60;99.90;;;;;;5054313;28;20099;-43
2023/08/05 10:13:28;;;;;;;1.70;1.30;;;19.60;99.90;;;;;;5054412;28;20430;-44
2023/08/05 10:15:55;;;;;;;1.95;1.27;;;19.60;99.90;;;;;;5054355;28;20511;-44
2023/08/05 10:18:21;;;;;;;1.92;1.42;;;19.60;99.90;;;;;;5054194;28;20369;-42
2023/08/05 10:20:51;;;;;;;3.90;1.50;;;19.60;99.90;;;;;;5054002;28;20033;-45
2023/08/05 10:23:16;;;;;;;1.63;1.50;;;19.60;99.90;;;;;;5054345;28;20487;-46
2023/08/05 10:25:47;;;;;;;2.50;1.58;;;19.60;99.90;;;;;;5054292;28;20063;-42
2023/08/05 10:28:28;;;;;;;1.33;1.23;;;19.60;99.90;;;;;;5054127;28;20043;-44
2023/08/05 10:30:56;;;;;;;3.05;1.50;;;19.60;99.90;;;;;;5053797;28;20021;-42
2023/08/05 10:33:23;;;;;;;2.42;1.65;;;19.60;99.90;;;;;;5053986;28;20038;-42
2023/08/05 10:35:49;;;;;;;1.58;1.40;;;19.70;99.90;;;;;;5053942;28;20491;-42
2023/08/05 10:38:19;;;;;;;1.35;1.17;;;19.60;99.90;;;;;;5054100;28;20030;-42
2023/08/05 10:40:56;;;;;;;2.10;1.40;;;19.60;99.90;;;;;;5053784;28;20087;-44
2023/08/05 10:43:30;;;;;;;1.90;1.50;;;19.60;99.90;;;;;;5053720;28;20143;-46
2023/08/05 10:46:00;;;;;;;3.10;1.38;;;19.60;99.90;;;;;;5054093;28;20064;-44
2023/08/05 10:48:47;;;;;;;1.77;1.30;;;19.60;99.90;;;;;;5053854;28;20025;-42
2023/08/05 10:51:17;;;;;;;2.08;1.40;;;19.60;99.90;;;;;;5053770;28;20484;-43
2023/08/05 10:53:58;;;;;;;1.98;1.40;;;19.60;99.90;;;;;;5053342;28;20021;-41
2023/08/05 10:56:34;;;;;;;3.20;1.33;;;19.70;99.90;;;;;;5053340;28;20049;-44
2023/08/05 10:59:01;;;;;;;1.85;1.40;;;19.70;99.90;;;;;;5053433;28;20029;-45
2023/08/05 11:01:52;;;;;;;1.50;1.30;;;19.70;99.90;;;;;;5053503;28;20543;-45
2023/08/05 11:04:31;;;;;;;2.15;1.48;;;19.70;99.90;;;;;;5053251;28;20044;-44
2023/08/05 11:06:59;;;;;;;1.85;1.35;;;19.70;99.90;;;;;;5053383;28;20028;-44
2023/08/05 11:09:26;;;;;;;3.05;1.30;;;19.70;99.90;;;;;;5053153;28;20120;-41
2023/08/05 11:11:51;;;;;;;1.92;1.20;;;19.70;99.90;;;;;;5053505;28;20027;-44
2023/08/05 11:14:18;;;;;;;1.38;1.27;;;19.70;99.90;;;;;;5053136;28;20104;-43
2023/08/05 11:16:45;;;;;;;1.50;1.25;;;19.70;99.90;;;;;;5053160;28;20036;-45
2023/08/05 11:19:12;;;;;;;2.80;1.10;;;19.70;99.90;;;;;;5052939;28;20021;-44
2023/08/05 11:21:42;;;;;;;1.20;1.10;;;19.70;99.90;;;;;;5053128;28;20060;-44
2023/08/05 11:24:15;;;;;;;1.52;1.38;;;19.70;99.90;;;;;;5052907;28;20041;-44
2023/08/05 11:26:41;;;;;;;1.52;1.35;;;19.70;99.90;;;;;;5053136;28;20029;-44
2023/08/05 11:29:07;;;;;;;1.60;1.50;;;19.70;99.90;;;;;;5052782;28;20121;-40
2023/08/05 11:31:33;;;;;;;1.88;1.50;;;19.70;99.90;;;;;;5052865;28;20526;-43
2023/08/05 11:33:58;;;;;;;1.45;1.33;;;19.70;99.90;;;;;;5052845;28;20064;-42
2023/08/05 11:36:25;;;;;;;1.50;1.20;;;19.70;99.90;;;;;;5052899;28;20108;-43
2023/08/05 11:38:51;;;;;;;1.90;1.40;;;19.70;99.90;;;;;;5051374;28;20025;-44
2023/08/05 11:41:17;;;;;;;1.45;1.35;;;19.70;99.90;;;;;;5053127;28;20057;-45
2023/08/05 11:43:43;;;;;;;1.67;1.30;;;19.70;99.90;;;;;;5052544;28;20029;-44
2023/08/05 11:46:26;;;;;;;2.35;1.38;;;19.70;99.90;;;;;;5052605;28;20028;-43
2023/08/05 11:49:14;;;;;;;1.25;1.15;;;19.70;99.90;;;;;;5052821;28;20261;-43
2023/08/05 11:51:52;;;;;;;1.50;1.40;;;19.70;99.90;;;;;;5052657;28;20025;-43
2023/08/05 11:54:32;;;;;;;1.55;1.40;;;19.60;99.90;;;;;;5052330;28;20488;-45
2023/08/05 11:56:58;;;;;;;1.30;1.20;;;19.70;99.90;;;;;;5052530;28;20017;-43
2023/08/05 11:59:43;;;;;;;1.70;1.30;;;19.70;99.90;;;;;;5052119;28;20359;-49
2023/08/05 12:02:10;;;;;;;;;;;19.70;99.90;;;;;;5052842;28;20021;-44
2023/08/05 12:04:46;;;;;;;1.80;1.45;;;19.60;99.90;;;;;;5052276;28;20386;-43
2023/08/05 12:07:21;;;;;;;1.60;1.50;;;19.70;99.90;;;;;;5052381;28;20029;-42
2023/08/05 12:10:05;;;;;;;1.55;1.45;;;19.70;99.90;;;;;;5052101;28;20118;-44
2023/08/05 12:12:30;;;;;;;1.52;1.40;;;19.70;99.90;;;;;;5052093;28;20024;-42
2023/08/05 12:15:19;;;;;;;1.48;1.38;;;19.60;99.90;;;;;;5052100;28;20100;-42
2023/08/05 12:17:47;;;;;;;1.63;1.40;;;19.70;99.90;;;;;;5052099;28;20021;-46
2023/08/05 12:20:16;;;;;;;1.52;1.33;;;19.70;99.90;;;;;;5051876;28;20140;-44
2023/08/05 12:22:42;;;;;;;1.35;1.20;;;19.60;99.90;;;;;;5051796;28;20391;-43
2023/08/05 12:25:07;;;;;;;1.50;1.10;;;19.60;99.90;;;;;;5051951;28;20021;-43
2023/08/05 12:27:33;;;;;;;1.40;1.30;;;19.70;99.90;;;;;;5050435;28;20033;-43
2023/08/05 12:29:59;;;;;;;1.65;1.27;;;19.60;99.90;;;;;;5051629;28;20120;-44
2023/08/05 12:32:24;;;;;;;2.05;1.40;;;19.70;99.90;;;;;;5051917;28;20530;-42
2023/08/05 12:34:50;;;;;;;2.22;1.35;;;19.70;99.90;;;;;;5051753;28;20487;-44
2023/08/05 12:37:16;;;;;;;1.77;1.33;;;19.60;99.90;;;;;;5051802;28;20025;-41
2023/08/05 12:39:41;;;;;;;1.30;1.20;;;19.70;99.90;;;;;;5051537;28;20074;-42
2023/08/05 12:42:09;;;;;;;1.88;1.42;;;19.60;99.90;;;;;;5051513;28;20037;-44
2023/08/05 12:44:34;;;;;;;1.52;1.30;;;19.70;99.90;;;;;;5051541;28;20076;-46
2023/08/05 12:47:00;;;;;;;1.48;1.33;;;19.70;99.90;;;;;;5051483;28;20057;-44
2023/08/05 12:49:47;;;;;;;1.75;1.20;;;19.70;99.90;;;;;;5051312;28;20071;-42